Nesbit, MS

9:26 AM CST on March 02, 2015 (GMT -0600)
West Memphis Municipal | Change Station
CLOSE
Current Station
Airport
Location: West Memphis,
Elevation: 213 ft
Nearby Weather Stations
Active Advisory: Winter Storm Watch

Elev 213 ft 35.14 °N, 90.23 °W | Updated 33 minutes ago

Overcast
Overcast
35 °F
Feels Like 26 °F
N
14
Wind Variable Wind from NE

Today
High -- | Low -- °F
--% Chance of Precip.
Yesterday
High -- | Low -- °F
Precip. -- in
6:28 AM 5:56 PM
Waxing Gibbous, 91% visible
Pressure 30.47 in
Visibility 10.0 miles
Clouds Overcast 3000 ft
Windchill 26 °F
Dew Point 28 °F
Humidity 76%
Rainfall 0.00 in
Snow Depth Not available.
UV 1 out of 12
Pollen 5.80 out of 12
Air Quality Not available.
Flu Activity Not available.
METAR KAWM 021453Z AUTO 05012KT 10SM OVC030 02/M02 A3046 RMK AO2 SLP318 T00171022 50008

More Conditions Fewer Conditions

Pressure 30.47 in
Visibility 10.0 miles
Clouds Overcast 3000 ft
Windchill 26 °F
Dew Point 28 °F
Humidity 76%
Rainfall 0.00 in
Snow Depth Not available.
UV 1 out of 12
Pollen 5.80 out of 12
Air Quality Not available.
Flu Activity Not available.
METAR KAWM 021453Z AUTO 05012KT 10SM OVC030 02/M02 A3046 RMK AO2 SLP318 T00171022 50008

More Conditions Fewer Conditions

10-Day Weather Forecast

Almanac

Astronomy

Mar. 02, 2015 Rise Set
Actual Time
Civil Twilight
Nautical Twilight
Astronomical Twilight
Moon
Length of Visible Light
Length of Day
Tomorrow will be .
, % of the Moon is Illuminated

Today's Extremes

State Highs State Lows

Community

WunderPhotos

Upload Photos

1,801,811 photos uploaded!

WunderBlogs® & News

Nearby

Air Quality

  Air Quality AQ Index Pollutant
Not available.

Snow Depth

Station Depth Elevation

Earthquake Activity

City Distance Mag. Time & Date
Minimum magnitude displayed is 2.5.

Coastal Water Temperatures

Place Temperature

Nearby Weather Stations

Winter Storm Watch
Statement as of 3:46 AM CST on March 02, 2015

... Winter Storm Watch in effect from Wednesday afternoon through
late Wednesday night...

The National Weather Service in Memphis has issued a Winter Storm
Watch... which is in effect from Wednesday afternoon through late
Wednesday night.

* Snow/sleet/ice accumulations... significant accumulations of
snow... sleet and ice are likely.

* Timing... 12 PM CST Wednesday to 6 am CST Thursday.

* Impacts... travel will likely become hazardous.

Precautionary/preparedness actions...

A Winter Storm Watch means there is a potential for significant
snow... sleet... or ice accumulations that may impact travel.
Continue to monitor the latest forecasts.



Sjm